• Join FlightAware (Why Join?)
  • Login
  • US Flag GB Flag 
09:10 EDT


 

Airport Tracker/Info


-or-


 

Live Flight TrackerFlight Track Log ✈ RPA3228 ✈ 26-Apr-2013 ✈ KDCA - KBTV

Flight Track Log - Related Links

Times and Time Zones

All times are in EDT time to prevent confusion due to time zone crossing. See the RPA3228 flight status page for this flight to view local times or setup timezone preferences in your user account.

Time Position Orientation Groundspeed Altitude Reporting Facility
EDT Latitude Longitude Course Direction KTS MPH feet Rate Location/Type
11:00 38.8833 -77.0667 38° Northeast 168 193 2,100  Level Potomac TRACON
11:01 38.9648 -76.6888 67° East  Level FlightAware Approximate
11:01 38.9333 -77.1167 322° Northwest 245 282 4,700  Level Potomac TRACON
11:02 39.0121 -76.5757 57° Northeast  Level FlightAware Approximate
11:03 39.0560 -76.4599 63° Northeast  Level FlightAware Approximate
11:03 39.0519 -77.1044 North 194 223 11,900  Level Washington Center
11:04 39.1039 -76.3465 61° Northeast  Level FlightAware Approximate
11:04 39.0639 -76.9764 83° East 265 305 14,700  Level Washington Center
11:05 39.1366 -76.2301 38° Northeast  Level FlightAware Approximate
11:05 39.0797 -76.8456 81° East 305 351 17,400  Level Washington Center
11:06 39.0958 -76.7094 81° East 333 383 19,400 2,100 Climbing Washington Center
11:07 39.1094 -76.5681 83° East 373 429 21,700 1,740 Climbing Washington Center
11:08 39.1272 -76.4211 81° East 396 456 23,000 660 Climbing Washington Center
11:09 39.1406 -76.2794 83° East 408 470 23,000  Level Washington Center
11:10 39.1622 -76.1322 79° East 408 470 23,000  Level Washington Center
11:11 39.1794 -75.9853 81° East 408 470 23,000 720 Level Washington Center
11:12 39.2172 -75.8489 70° East 398 458 24,500 1,620 Climbing Washington Center
11:13 39.2967 -75.7472 45° Northeast 379 436 26,300 1,320 Climbing Washington Center
11:14 39.3781 -75.6506 43° Northeast 389 448 27,200 1,260 Climbing Washington Center
11:15 39.4697 -75.5619 37° Northeast 394 453 28,900 1,380 Climbing Washington Center
11:16 39.5614 -75.4758 36° Northeast 400 460 30,100 720 Climbing Washington Center
11:18 39.7233 -75.3214 36° Northeast 417 480 31,000 300 Climbing New York Center
11:19 39.8175 -75.2086 43° Northeast 433 498 31,000  Level New York Center
11:20 39.8858 -75.0533 60° Northeast 462 532 31,000  Level New York Center
11:21 39.9578 -74.9008 58° Northeast 476 548 31,000  Level New York Center
11:22 40.0317 -74.7533 57° Northeast 481 554 31,000  Level New York Center
11:23 40.1175 -74.6197 50° Northeast 481 554 31,000  Level New York Center
11:24 40.2136 -74.4839 47° Northeast 473 544 31,000  Level New York Center
11:25 40.3147 -74.3775 39° Northeast 462 532 31,000  Level New York Center
11:26 40.4175 -74.2931 32° Northeast 471 542 31,000  Level New York Center
11:27 40.5369 -74.1981 31° Northeast 471 542 31,000  Level New York Center
11:28 40.7028 -74.0608 32° Northeast 464 534 31,000  Level Boston Center
11:29 40.8103 -73.9783 30° Northeast 457 526 31,000  Level Boston Center
11:30 40.9219 -73.8878 31° Northeast 457 526 31,000  Level Boston Center
11:31 41.0292 -73.7939 33° Northeast 462 532 31,000  Level Boston Center
11:32 41.1472 -73.6942 32° Northeast 462 532 31,000  Level Boston Center
11:33 41.2667 -73.6358 20° North 441 507 31,000  Level Boston Center
11:34 41.3625 -73.6211 North 436 502 31,000  Level Boston Center
11:35 41.5108 -73.5961 North 430 495 31,000  Level Boston Center
11:36 41.6172 -73.5814 North 430 495 31,000  Level Boston Center
11:37 41.7361 -73.5639 North 430 495 31,000  Level Boston Center
11:38 41.8594 -73.5411 North 430 495 31,000  Level Boston Center
11:39 41.9806 -73.5208 North 430 495 31,000  Level Boston Center
11:40 42.1183 -73.4925 North 436 502 31,000  Level Boston Center
11:41 42.2372 -73.4719 North 436 502 31,000  Level Boston Center
11:42 42.3561 -73.4600 North 436 502 31,000  Level Boston Center
11:43 42.4772 -73.4367 North 436 502 31,000  Level Boston Center
11:44 42.5964 -73.4158 North 436 502 31,000  Level Boston Center
11:45 42.7194 -73.3953 North 436 502 31,000  Level Boston Center
11:46 42.8406 -73.3744 North 436 502 31,000  Level Boston Center
11:47 42.9617 -73.3536 North 429 494 31,000 -60 Level Boston Center
11:48 43.0806 -73.3356 North 429 494 30,900 -1,200 Descending Boston Center
11:49 43.1972 -73.3200 North 429 494 28,600 -2,520 Descending Boston Center
11:50 43.3183 -73.3047 North 424 488 25,900 -2,520 Descending Boston Center
11:51 43.4142 -73.2889 North 418 481 23,600 -2,400 Descending Boston Center
11:52 43.5247 -73.2792 North 399 459 21,100 -2,580 Descending Boston Center
11:53 43.6333 -73.2633 North 387 445 18,500 -2,400 Descending Boston Center
11:54 43.7397 -73.2506 North 387 445 16,300 -2,340 Descending Boston Center
11:56 43.8577 -73.2308 14° North  Level FlightAware Approximate
11:56 43.9378 -73.2242 14° North 361 415 11,500  Level Boston Center
11:57 44.0275 -73.2139 North 332 382 10,600 -1,500 Descending Boston Center
11:58 44.1089 -73.1919 11° North 307 353 8,600 -2,100 Descending Boston Center
11:59 44.1800 -73.1608 17° North 277 319 6,500 -1,500 Descending Boston Center
12:00 44.2508 -73.1386 13° North 259 298 5,600 -1,200 Descending Boston Center
12:01 44.3197 -73.1161 13° North 242 278 4,100 -1,020 Descending Boston Center
12:02 44.3781 -73.0994 12° North 210 242 3,600 -540 Descending Boston Center